sensor_id;sensor_type;location;lat;lon;timestamp;temperature;humidity
9125;DHT22;4597;48.730;9.114;2023-08-20T00:01:38;23.40;99.90
9125;DHT22;4597;48.730;9.114;2023-08-20T00:04:04;23.40;99.90
9125;DHT22;4597;48.730;9.114;2023-08-20T00:06:30;23.30;99.90
9125;DHT22;4597;48.730;9.114;2023-08-20T00:08:56;23.30;99.90
9125;DHT22;4597;48.730;9.114;2023-08-20T00:11:21;23.30;99.90
9125;DHT22;4597;48.730;9.114;2023-08-20T00:13:47;23.30;99.90
9125;DHT22;4597;48.730;9.114;2023-08-20T00:16:13;23.20;99.90
9125;DHT22;4597;48.730;9.114;2023-08-20T00:18:39;23.20;99.90
9125;DHT22;4597;48.730;9.114;2023-08-20T00:21:05;23.20;99.90
9125;DHT22;4597;48.730;9.114;2023-08-20T00:23:31;23.20;99.90
9125;DHT22;4597;48.730;9.114;2023-08-20T00:25:57;23.30;99.90
9125;DHT22;4597;48.730;9.114;2023-08-20T00:28:22;23.30;99.90
9125;DHT22;4597;48.730;9.114;2023-08-20T00:30:48;23.20;99.90
9125;DHT22;4597;48.730;9.114;2023-08-20T00:33:14;23.20;99.90
9125;DHT22;4597;48.730;9.114;2023-08-20T00:35:40;23.20;99.90
9125;DHT22;4597;48.730;9.114;2023-08-20T00:38:06;23.20;99.90
9125;DHT22;4597;48.730;9.114;2023-08-20T00:40:31;23.20;99.90
9125;DHT22;4597;48.730;9.114;2023-08-20T00:42:57;23.10;99.90
9125;DHT22;4597;48.730;9.114;2023-08-20T00:45:23;23.10;99.90
9125;DHT22;4597;48.730;9.114;2023-08-20T00:47:49;23.10;99.90
9125;DHT22;4597;48.730;9.114;2023-08-20T00:50:16;23.10;99.90
9125;DHT22;4597;48.730;9.114;2023-08-20T00:52:41;23.00;99.90
9125;DHT22;4597;48.730;9.114;2023-08-20T00:55:09;23.00;99.90
9125;DHT22;4597;48.730;9.114;2023-08-20T00:57:37;23.00;99.90
9125;DHT22;4597;48.730;9.114;2023-08-20T01:00:03;23.00;99.90
9125;DHT22;4597;48.730;9.114;2023-08-20T01:02:33;22.90;99.90
9125;DHT22;4597;48.730;9.114;2023-08-20T01:04:58;22.90;99.90
9125;DHT22;4597;48.730;9.114;2023-08-20T01:07:29;22.90;99.90
9125;DHT22;4597;48.730;9.114;2023-08-20T01:12:29;22.90;99.90
9125;DHT22;4597;48.730;9.114;2023-08-20T01:14:54;22.90;99.90
9125;DHT22;4597;48.730;9.114;2023-08-20T01:17:20;22.80;99.90
9125;DHT22;4597;48.730;9.114;2023-08-20T01:19:46;22.80;99.90
9125;DHT22;4597;48.730;9.114;2023-08-20T01:22:30;22.80;99.90
9125;DHT22;4597;48.730;9.114;2023-08-20T01:25:24;22.80;99.90
9125;DHT22;4597;48.730;9.114;2023-08-20T01:30:46;22.70;99.90
9125;DHT22;4597;48.730;9.114;2023-08-20T01:33:11;22.70;99.90
9125;DHT22;4597;48.730;9.114;2023-08-20T01:35:40;22.70;99.90
9125;DHT22;4597;48.730;9.114;2023-08-20T01:38:05;22.70;99.90
9125;DHT22;4597;48.730;9.114;2023-08-20T01:40:31;22.70;99.90
9125;DHT22;4597;48.730;9.114;2023-08-20T01:42:57;22.60;99.90
9125;DHT22;4597;48.730;9.114;2023-08-20T01:45:22;22.60;99.90
9125;DHT22;4597;48.730;9.114;2023-08-20T01:47:48;22.50;99.90
9125;DHT22;4597;48.730;9.114;2023-08-20T01:50:14;22.50;99.90
9125;DHT22;4597;48.730;9.114;2023-08-20T01:52:40;22.50;99.90
9125;DHT22;4597;48.730;9.114;2023-08-20T01:55:05;22.50;99.90
9125;DHT22;4597;48.730;9.114;2023-08-20T01:57:31;22.50;99.90
9125;DHT22;4597;48.730;9.114;2023-08-20T01:59:57;22.50;99.90
9125;DHT22;4597;48.730;9.114;2023-08-20T02:02:23;22.50;99.90
9125;DHT22;4597;48.730;9.114;2023-08-20T02:04:49;22.50;99.90
9125;DHT22;4597;48.730;9.114;2023-08-20T02:07:14;22.50;99.90
9125;DHT22;4597;48.730;9.114;2023-08-20T02:09:40;22.50;99.90
9125;DHT22;4597;48.730;9.114;2023-08-20T02:12:05;22.40;99.90
9125;DHT22;4597;48.730;9.114;2023-08-20T02:14:31;22.40;99.90
9125;DHT22;4597;48.730;9.114;2023-08-20T02:17:03;22.50;99.90
9125;DHT22;4597;48.730;9.114;2023-08-20T02:19:29;22.40;99.90
9125;DHT22;4597;48.730;9.114;2023-08-20T02:21:54;22.40;99.90
9125;DHT22;4597;48.730;9.114;2023-08-20T02:24:20;22.40;99.90
9125;DHT22;4597;48.730;9.114;2023-08-20T02:26:45;22.40;99.90
9125;DHT22;4597;48.730;9.114;2023-08-20T02:29:11;22.40;99.90
9125;DHT22;4597;48.730;9.114;2023-08-20T02:31:36;22.40;99.90
9125;DHT22;4597;48.730;9.114;2023-08-20T02:34:02;22.30;99.90
9125;DHT22;4597;48.730;9.114;2023-08-20T02:36:28;22.30;99.90
9125;DHT22;4597;48.730;9.114;2023-08-20T02:38:53;22.30;99.90
9125;DHT22;4597;48.730;9.114;2023-08-20T02:41:19;22.30;99.90
9125;DHT22;4597;48.730;9.114;2023-08-20T02:43:45;22.20;99.90
9125;DHT22;4597;48.730;9.114;2023-08-20T02:46:10;22.20;99.90
9125;DHT22;4597;48.730;9.114;2023-08-20T02:48:36;22.20;99.90
9125;DHT22;4597;48.730;9.114;2023-08-20T02:51:02;22.10;99.90
9125;DHT22;4597;48.730;9.114;2023-08-20T02:53:28;22.10;99.90
9125;DHT22;4597;48.730;9.114;2023-08-20T02:55:54;22.10;99.90
9125;DHT22;4597;48.730;9.114;2023-08-20T02:58:19;22.10;99.90
9125;DHT22;4597;48.730;9.114;2023-08-20T03:00:45;22.10;99.90
9125;DHT22;4597;48.730;9.114;2023-08-20T03:03:11;22.00;99.90
9125;DHT22;4597;48.730;9.114;2023-08-20T03:05:37;22.00;99.90
9125;DHT22;4597;48.730;9.114;2023-08-20T03:08:03;22.00;99.90
9125;DHT22;4597;48.730;9.114;2023-08-20T03:10:30;22.00;99.90
9125;DHT22;4597;48.730;9.114;2023-08-20T03:12:57;22.00;99.90
9125;DHT22;4597;48.730;9.114;2023-08-20T03:15:23;22.00;99.90
9125;DHT22;4597;48.730;9.114;2023-08-20T03:17:48;22.00;99.90
9125;DHT22;4597;48.730;9.114;2023-08-20T03:20:14;22.00;99.90
9125;DHT22;4597;48.730;9.114;2023-08-20T03:22:39;22.00;99.90
9125;DHT22;4597;48.730;9.114;2023-08-20T03:25:06;21.90;99.90
9125;DHT22;4597;48.730;9.114;2023-08-20T03:27:31;22.00;99.90
9125;DHT22;4597;48.730;9.114;2023-08-20T03:29:57;22.00;99.90
9125;DHT22;4597;48.730;9.114;2023-08-20T03:32:23;22.00;99.90
9125;DHT22;4597;48.730;9.114;2023-08-20T03:34:49;21.90;99.90
9125;DHT22;4597;48.730;9.114;2023-08-20T03:37:15;21.90;99.90
9125;DHT22;4597;48.730;9.114;2023-08-20T03:39:41;21.90;99.90
9125;DHT22;4597;48.730;9.114;2023-08-20T03:42:06;21.90;99.90
9125;DHT22;4597;48.730;9.114;2023-08-20T03:44:32;21.90;99.90
9125;DHT22;4597;48.730;9.114;2023-08-20T03:46:58;21.80;99.90
9125;DHT22;4597;48.730;9.114;2023-08-20T03:49:23;21.80;99.90
9125;DHT22;4597;48.730;9.114;2023-08-20T03:51:49;21.80;99.90
9125;DHT22;4597;48.730;9.114;2023-08-20T03:54:14;21.80;99.90
9125;DHT22;4597;48.730;9.114;2023-08-20T03:56:40;21.70;99.90
9125;DHT22;4597;48.730;9.114;2023-08-20T03:59:06;21.70;99.90
9125;DHT22;4597;48.730;9.114;2023-08-20T04:01:31;21.70;99.90
9125;DHT22;4597;48.730;9.114;2023-08-20T04:03:57;21.60;99.90
9125;DHT22;4597;48.730;9.114;2023-08-20T04:06:22;21.60;99.90
9125;DHT22;4597;48.730;9.114;2023-08-20T04:08:48;21.60;99.90
9125;DHT22;4597;48.730;9.114;2023-08-20T04:11:14;21.60;99.90
9125;DHT22;4597;48.730;9.114;2023-08-20T04:13:40;21.60;99.90
9125;DHT22;4597;48.730;9.114;2023-08-20T04:16:08;21.60;99.90
9125;DHT22;4597;48.730;9.114;2023-08-20T04:18:34;21.60;99.90
9125;DHT22;4597;48.730;9.114;2023-08-20T04:20:59;21.60;99.90
9125;DHT22;4597;48.730;9.114;2023-08-20T04:23:25;21.60;99.90
9125;DHT22;4597;48.730;9.114;2023-08-20T04:25:50;21.60;99.90
9125;DHT22;4597;48.730;9.114;2023-08-20T04:28:16;21.60;99.90
9125;DHT22;4597;48.730;9.114;2023-08-20T04:30:41;21.60;99.90
9125;DHT22;4597;48.730;9.114;2023-08-20T04:33:07;21.50;99.90
9125;DHT22;4597;48.730;9.114;2023-08-20T04:35:33;21.50;99.90
9125;DHT22;4597;48.730;9.114;2023-08-20T04:37:59;21.50;99.90
9125;DHT22;4597;48.730;9.114;2023-08-20T04:40:24;21.50;99.90
9125;DHT22;4597;48.730;9.114;2023-08-20T04:42:51;21.40;99.90
9125;DHT22;4597;48.730;9.114;2023-08-20T04:45:17;21.40;99.90
9125;DHT22;4597;48.730;9.114;2023-08-20T04:47:48;21.40;99.90
9125;DHT22;4597;48.730;9.114;2023-08-20T04:50:13;21.30;99.90
9125;DHT22;4597;48.730;9.114;2023-08-20T04:52:39;21.30;99.90
9125;DHT22;4597;48.730;9.114;2023-08-20T04:55:05;21.30;99.90
9125;DHT22;4597;48.730;9.114;2023-08-20T04:57:33;21.30;99.90
9125;DHT22;4597;48.730;9.114;2023-08-20T04:59:59;21.30;99.90
9125;DHT22;4597;48.730;9.114;2023-08-20T05:02:24;21.40;99.90
9125;DHT22;4597;48.730;9.114;2023-08-20T05:04:50;21.40;99.90
9125;DHT22;4597;48.730;9.114;2023-08-20T05:07:16;21.40;99.90
9125;DHT22;4597;48.730;9.114;2023-08-20T05:09:41;21.40;99.90
9125;DHT22;4597;48.730;9.114;2023-08-20T05:12:07;21.40;99.90
9125;DHT22;4597;48.730;9.114;2023-08-20T05:14:32;21.40;99.90
9125;DHT22;4597;48.730;9.114;2023-08-20T05:16:58;21.40;99.90
9125;DHT22;4597;48.730;9.114;2023-08-20T05:19:24;21.40;99.90
9125;DHT22;4597;48.730;9.114;2023-08-20T05:21:49;21.40;99.90
9125;DHT22;4597;48.730;9.114;2023-08-20T05:24:15;21.40;99.90
9125;DHT22;4597;48.730;9.114;2023-08-20T05:26:41;21.40;99.90
9125;DHT22;4597;48.730;9.114;2023-08-20T05:29:06;21.40;99.90
9125;DHT22;4597;48.730;9.114;2023-08-20T05:31:33;21.50;99.90
9125;DHT22;4597;48.730;9.114;2023-08-20T05:33:59;21.50;99.90
9125;DHT22;4597;48.730;9.114;2023-08-20T05:36:24;21.50;99.90
9125;DHT22;4597;48.730;9.114;2023-08-20T05:38:50;21.60;99.90
9125;DHT22;4597;48.730;9.114;2023-08-20T05:41:15;21.60;99.90
9125;DHT22;4597;48.730;9.114;2023-08-20T05:43:41;21.60;99.90
9125;DHT22;4597;48.730;9.114;2023-08-20T05:46:06;21.70;99.90
9125;DHT22;4597;48.730;9.114;2023-08-20T05:48:32;21.70;99.90
9125;DHT22;4597;48.730;9.114;2023-08-20T05:50:57;21.70;99.90
9125;DHT22;4597;48.730;9.114;2023-08-20T05:53:23;21.70;99.90
9125;DHT22;4597;48.730;9.114;2023-08-20T05:55:48;21.70;99.90
9125;DHT22;4597;48.730;9.114;2023-08-20T05:58:14;21.80;99.90
9125;DHT22;4597;48.730;9.114;2023-08-20T06:00:40;21.80;99.90
9125;DHT22;4597;48.730;9.114;2023-08-20T06:03:05;21.90;99.90
9125;DHT22;4597;48.730;9.114;2023-08-20T06:05:33;21.90;99.90
9125;DHT22;4597;48.730;9.114;2023-08-20T06:07:58;22.00;99.90
9125;DHT22;4597;48.730;9.114;2023-08-20T06:10:24;22.00;99.90
9125;DHT22;4597;48.730;9.114;2023-08-20T06:12:49;22.00;99.90
9125;DHT22;4597;48.730;9.114;2023-08-20T06:15:15;22.10;99.90
9125;DHT22;4597;48.730;9.114;2023-08-20T06:17:40;22.10;99.90
9125;DHT22;4597;48.730;9.114;2023-08-20T06:20:06;22.20;99.90
9125;DHT22;4597;48.730;9.114;2023-08-20T06:22:33;22.20;99.90
9125;DHT22;4597;48.730;9.114;2023-08-20T06:24:59;22.30;99.90
9125;DHT22;4597;48.730;9.114;2023-08-20T06:27:25;22.30;99.90
9125;DHT22;4597;48.730;9.114;2023-08-20T06:29:50;22.40;99.90
9125;DHT22;4597;48.730;9.114;2023-08-20T06:32:16;22.40;99.90
9125;DHT22;4597;48.730;9.114;2023-08-20T06:34:41;22.40;99.90
9125;DHT22;4597;48.730;9.114;2023-08-20T06:37:07;22.40;99.90
9125;DHT22;4597;48.730;9.114;2023-08-20T06:39:32;22.50;99.90
9125;DHT22;4597;48.730;9.114;2023-08-20T06:41:58;22.50;99.90
9125;DHT22;4597;48.730;9.114;2023-08-20T06:44:23;22.50;99.90
9125;DHT22;4597;48.730;9.114;2023-08-20T06:46:49;22.50;99.90
9125;DHT22;4597;48.730;9.114;2023-08-20T06:49:14;22.60;99.90
9125;DHT22;4597;48.730;9.114;2023-08-20T06:51:40;22.60;99.90
9125;DHT22;4597;48.730;9.114;2023-08-20T06:54:05;22.70;99.90
9125;DHT22;4597;48.730;9.114;2023-08-20T06:56:34;22.70;99.90
9125;DHT22;4597;48.730;9.114;2023-08-20T06:59:00;22.70;99.90
9125;DHT22;4597;48.730;9.114;2023-08-20T07:01:26;22.70;99.90
9125;DHT22;4597;48.730;9.114;2023-08-20T07:03:51;22.80;99.90
9125;DHT22;4597;48.730;9.114;2023-08-20T07:06:17;22.80;99.90
9125;DHT22;4597;48.730;9.114;2023-08-20T07:08:44;22.80;99.90
9125;DHT22;4597;48.730;9.114;2023-08-20T07:11:10;22.80;99.90
9125;DHT22;4597;48.730;9.114;2023-08-20T07:13:36;22.90;99.90
9125;DHT22;4597;48.730;9.114;2023-08-20T07:16:01;22.90;99.90
9125;DHT22;4597;48.730;9.114;2023-08-20T07:18:27;22.90;99.90
9125;DHT22;4597;48.730;9.114;2023-08-20T07:20:55;23.00;99.90
9125;DHT22;4597;48.730;9.114;2023-08-20T07:23:21;23.00;99.90
9125;DHT22;4597;48.730;9.114;2023-08-20T07:25:46;23.00;99.90
9125;DHT22;4597;48.730;9.114;2023-08-20T07:28:12;23.10;99.90
9125;DHT22;4597;48.730;9.114;2023-08-20T07:30:38;23.10;99.90
9125;DHT22;4597;48.730;9.114;2023-08-20T07:33:05;23.20;99.90
9125;DHT22;4597;48.730;9.114;2023-08-20T07:35:30;23.20;99.90
9125;DHT22;4597;48.730;9.114;2023-08-20T07:37:56;23.30;99.90
9125;DHT22;4597;48.730;9.114;2023-08-20T07:40:21;23.30;99.90
9125;DHT22;4597;48.730;9.114;2023-08-20T07:42:47;23.40;99.90
9125;DHT22;4597;48.730;9.114;2023-08-20T07:45:12;23.50;99.90
9125;DHT22;4597;48.730;9.114;2023-08-20T07:47:39;23.50;99.90
9125;DHT22;4597;48.730;9.114;2023-08-20T07:50:05;23.60;99.90
9125;DHT22;4597;48.730;9.114;2023-08-20T07:52:31;23.70;99.90
9125;DHT22;4597;48.730;9.114;2023-08-20T07:54:58;23.70;99.90
9125;DHT22;4597;48.730;9.114;2023-08-20T07:57:24;23.80;99.90
9125;DHT22;4597;48.730;9.114;2023-08-20T07:59:50;23.80;99.90
9125;DHT22;4597;48.730;9.114;2023-08-20T08:02:16;23.90;99.90
9125;DHT22;4597;48.730;9.114;2023-08-20T08:04:42;23.90;99.90
9125;DHT22;4597;48.730;9.114;2023-08-20T08:07:08;24.00;99.90
9125;DHT22;4597;48.730;9.114;2023-08-20T08:09:34;24.00;99.90
9125;DHT22;4597;48.730;9.114;2023-08-20T08:11:59;24.00;99.90
9125;DHT22;4597;48.730;9.114;2023-08-20T08:14:26;24.00;99.90
9125;DHT22;4597;48.730;9.114;2023-08-20T08:16:51;24.10;99.90
9125;DHT22;4597;48.730;9.114;2023-08-20T08:19:18;24.20;99.90
9125;DHT22;4597;48.730;9.114;2023-08-20T08:21:44;24.20;99.90
9125;DHT22;4597;48.730;9.114;2023-08-20T08:24:10;24.20;99.90
9125;DHT22;4597;48.730;9.114;2023-08-20T08:26:36;24.20;99.90
9125;DHT22;4597;48.730;9.114;2023-08-20T08:29:05;24.40;99.90
9125;DHT22;4597;48.730;9.114;2023-08-20T08:31:31;24.40;99.90
9125;DHT22;4597;48.730;9.114;2023-08-20T08:33:57;24.40;99.90
9125;DHT22;4597;48.730;9.114;2023-08-20T08:36:23;24.50;99.90
9125;DHT22;4597;48.730;9.114;2023-08-20T08:38:53;24.50;99.90
9125;DHT22;4597;48.730;9.114;2023-08-20T08:41:22;24.60;99.90
9125;DHT22;4597;48.730;9.114;2023-08-20T08:43:49;24.60;99.90
9125;DHT22;4597;48.730;9.114;2023-08-20T08:46:15;24.60;99.90
9125;DHT22;4597;48.730;9.114;2023-08-20T08:48:42;24.60;99.90
9125;DHT22;4597;48.730;9.114;2023-08-20T08:51:08;24.70;99.90
9125;DHT22;4597;48.730;9.114;2023-08-20T08:53:35;24.80;99.90
9125;DHT22;4597;48.730;9.114;2023-08-20T08:56:01;24.80;99.90
9125;DHT22;4597;48.730;9.114;2023-08-20T08:58:28;24.90;99.90
9125;DHT22;4597;48.730;9.114;2023-08-20T09:00:54;25.00;99.90
9125;DHT22;4597;48.730;9.114;2023-08-20T09:03:20;25.00;99.90
9125;DHT22;4597;48.730;9.114;2023-08-20T09:05:50;25.20;99.90
9125;DHT22;4597;48.730;9.114;2023-08-20T09:08:28;25.20;99.90
9125;DHT22;4597;48.730;9.114;2023-08-20T09:10:55;25.30;99.90
9125;DHT22;4597;48.730;9.114;2023-08-20T09:13:38;25.40;99.90
9125;DHT22;4597;48.730;9.114;2023-08-20T09:16:08;25.40;99.90
9125;DHT22;4597;48.730;9.114;2023-08-20T09:18:44;25.40;99.90
9125;DHT22;4597;48.730;9.114;2023-08-20T09:21:12;25.50;99.90
9125;DHT22;4597;48.730;9.114;2023-08-20T09:23:38;25.50;99.90
9125;DHT22;4597;48.730;9.114;2023-08-20T09:26:06;25.50;99.90
9125;DHT22;4597;48.730;9.114;2023-08-20T09:28:46;25.50;99.90
9125;DHT22;4597;48.730;9.114;2023-08-20T09:31:13;25.50;99.90
9125;DHT22;4597;48.730;9.114;2023-08-20T09:33:52;25.50;99.90
9125;DHT22;4597;48.730;9.114;2023-08-20T09:36:19;25.60;99.90
9125;DHT22;4597;48.730;9.114;2023-08-20T09:38:44;25.60;99.90
9125;DHT22;4597;48.730;9.114;2023-08-20T09:41:12;25.70;99.90
9125;DHT22;4597;48.730;9.114;2023-08-20T09:43:38;25.70;99.90
9125;DHT22;4597;48.730;9.114;2023-08-20T09:46:05;25.70;99.90
9125;DHT22;4597;48.730;9.114;2023-08-20T09:48:34;25.80;99.90
9125;DHT22;4597;48.730;9.114;2023-08-20T09:51:04;25.80;99.90
9125;DHT22;4597;48.730;9.114;2023-08-20T09:53:39;25.90;99.90
9125;DHT22;4597;48.730;9.114;2023-08-20T09:56:15;25.90;99.90
9125;DHT22;4597;48.730;9.114;2023-08-20T09:58:41;26.00;99.90
9125;DHT22;4597;48.730;9.114;2023-08-20T10:01:07;26.10;99.90
9125;DHT22;4597;48.730;9.114;2023-08-20T10:03:32;26.10;99.90
9125;DHT22;4597;48.730;9.114;2023-08-20T10:05:59;26.20;99.90
9125;DHT22;4597;48.730;9.114;2023-08-20T10:08:26;26.20;99.90
9125;DHT22;4597;48.730;9.114;2023-08-20T10:10:52;26.30;99.90
9125;DHT22;4597;48.730;9.114;2023-08-20T10:13:18;26.30;99.90
9125;DHT22;4597;48.730;9.114;2023-08-20T10:15:44;26.40;99.90
9125;DHT22;4597;48.730;9.114;2023-08-20T10:18:11;26.50;99.90
9125;DHT22;4597;48.730;9.114;2023-08-20T10:20:38;26.50;99.90
9125;DHT22;4597;48.730;9.114;2023-08-20T10:23:04;26.60;99.90
9125;DHT22;4597;48.730;9.114;2023-08-20T10:25:30;26.60;99.90
9125;DHT22;4597;48.730;9.114;2023-08-20T10:28:11;26.70;99.90
9125;DHT22;4597;48.730;9.114;2023-08-20T10:30:38;26.70;99.90
9125;DHT22;4597;48.730;9.114;2023-08-20T10:33:04;26.80;99.90
9125;DHT22;4597;48.730;9.114;2023-08-20T10:38:10;26.80;99.90
9125;DHT22;4597;48.730;9.114;2023-08-20T10:40:56;26.90;99.90
9125;DHT22;4597;48.730;9.114;2023-08-20T10:43:39;26.90;99.90
9125;DHT22;4597;48.730;9.114;2023-08-20T10:46:28;27.00;99.90
9125;DHT22;4597;48.730;9.114;2023-08-20T10:48:56;27.10;99.90
9125;DHT22;4597;48.730;9.114;2023-08-20T10:51:37;27.20;99.90
9125;DHT22;4597;48.730;9.114;2023-08-20T10:54:07;27.20;99.90
9125;DHT22;4597;48.730;9.114;2023-08-20T10:56:55;27.30;99.90
9125;DHT22;4597;48.730;9.114;2023-08-20T10:59:28;27.40;99.90
9125;DHT22;4597;48.730;9.114;2023-08-20T11:01:57;27.50;99.90
9125;DHT22;4597;48.730;9.114;2023-08-20T11:04:27;27.60;99.90
9125;DHT22;4597;48.730;9.114;2023-08-20T11:06:54;27.60;99.90
9125;DHT22;4597;48.730;9.114;2023-08-20T11:09:30;27.70;99.90
9125;DHT22;4597;48.730;9.114;2023-08-20T11:11:57;27.70;99.90
9125;DHT22;4597;48.730;9.114;2023-08-20T11:14:23;27.80;99.90
9125;DHT22;4597;48.730;9.114;2023-08-20T11:16:49;27.80;99.90
9125;DHT22;4597;48.730;9.114;2023-08-20T11:19:19;27.90;99.90
9125;DHT22;4597;48.730;9.114;2023-08-20T11:21:45;27.90;99.90
9125;DHT22;4597;48.730;9.114;2023-08-20T11:24:11;27.80;99.90
9125;DHT22;4597;48.730;9.114;2023-08-20T11:26:41;27.80;99.90
9125;DHT22;4597;48.730;9.114;2023-08-20T11:29:14;27.90;99.90
9125;DHT22;4597;48.730;9.114;2023-08-20T11:31:42;28.10;99.90
9125;DHT22;4597;48.730;9.114;2023-08-20T11:34:08;28.10;99.90
9125;DHT22;4597;48.730;9.114;2023-08-20T11:36:33;28.30;99.90
9125;DHT22;4597;48.730;9.114;2023-08-20T11:39:00;28.40;99.90
9125;DHT22;4597;48.730;9.114;2023-08-20T11:41:25;28.50;99.90
9125;DHT22;4597;48.730;9.114;2023-08-20T11:43:52;28.60;99.90
9125;DHT22;4597;48.730;9.114;2023-08-20T11:46:19;28.80;99.90
9125;DHT22;4597;48.730;9.114;2023-08-20T11:49:01;29.00;99.90
9125;DHT22;4597;48.730;9.114;2023-08-20T11:51:28;29.10;99.90
9125;DHT22;4597;48.730;9.114;2023-08-20T11:53:54;29.10;99.90
9125;DHT22;4597;48.730;9.114;2023-08-20T11:56:20;29.10;99.90
9125;DHT22;4597;48.730;9.114;2023-08-20T11:58:50;29.20;99.90
9125;DHT22;4597;48.730;9.114;2023-08-20T12:01:18;29.30;99.90
9125;DHT22;4597;48.730;9.114;2023-08-20T12:03:44;29.40;99.90
9125;DHT22;4597;48.730;9.114;2023-08-20T12:06:20;29.70;99.90
9125;DHT22;4597;48.730;9.114;2023-08-20T12:08:46;29.80;99.90
9125;DHT22;4597;48.730;9.114;2023-08-20T12:11:12;29.90;99.90
9125;DHT22;4597;48.730;9.114;2023-08-20T12:13:37;30.00;99.90
9125;DHT22;4597;48.730;9.114;2023-08-20T12:16:03;30.10;99.90
9125;DHT22;4597;48.730;9.114;2023-08-20T12:18:28;30.10;99.90
9125;DHT22;4597;48.730;9.114;2023-08-20T12:20:55;30.20;99.90
9125;DHT22;4597;48.730;9.114;2023-08-20T12:23:21;30.20;99.90
9125;DHT22;4597;48.730;9.114;2023-08-20T12:25:50;30.30;99.90
9125;DHT22;4597;48.730;9.114;2023-08-20T12:28:16;30.30;99.90
9125;DHT22;4597;48.730;9.114;2023-08-20T12:30:41;30.40;99.90
9125;DHT22;4597;48.730;9.114;2023-08-20T12:33:07;30.40;99.90
9125;DHT22;4597;48.730;9.114;2023-08-20T12:35:33;30.40;99.90
9125;DHT22;4597;48.730;9.114;2023-08-20T12:37:58;30.50;99.90
9125;DHT22;4597;48.730;9.114;2023-08-20T12:40:24;30.70;99.70
9125;DHT22;4597;48.730;9.114;2023-08-20T12:42:49;30.80;98.70
9125;DHT22;4597;48.730;9.114;2023-08-20T12:45:15;30.90;96.90
9125;DHT22;4597;48.730;9.114;2023-08-20T12:47:40;31.00;96.40
9125;DHT22;4597;48.730;9.114;2023-08-20T12:50:06;31.00;95.50
9125;DHT22;4597;48.730;9.114;2023-08-20T12:52:32;31.10;93.20
9125;DHT22;4597;48.730;9.114;2023-08-20T12:54:58;31.10;92.60
9125;DHT22;4597;48.730;9.114;2023-08-20T12:57:24;31.20;94.40
9125;DHT22;4597;48.730;9.114;2023-08-20T12:59:49;31.30;93.60
9125;DHT22;4597;48.730;9.114;2023-08-20T13:02:15;31.30;92.30
9125;DHT22;4597;48.730;9.114;2023-08-20T13:04:41;31.40;92.10
9125;DHT22;4597;48.730;9.114;2023-08-20T13:07:07;31.50;93.30
9125;DHT22;4597;48.730;9.114;2023-08-20T13:09:33;31.70;94.60
9125;DHT22;4597;48.730;9.114;2023-08-20T13:12:01;31.80;93.70
9125;DHT22;4597;48.730;9.114;2023-08-20T13:14:27;32.00;92.10
9125;DHT22;4597;48.730;9.114;2023-08-20T13:16:52;32.20;88.70
9125;DHT22;4597;48.730;9.114;2023-08-20T13:19:18;32.30;90.90
9125;DHT22;4597;48.730;9.114;2023-08-20T13:21:44;32.50;85.60
9125;DHT22;4597;48.730;9.114;2023-08-20T13:24:09;32.70;90.00
9125;DHT22;4597;48.730;9.114;2023-08-20T13:26:35;32.90;91.40
9125;DHT22;4597;48.730;9.114;2023-08-20T13:29:00;33.10;87.70
9125;DHT22;4597;48.730;9.114;2023-08-20T13:31:26;33.20;83.70
9125;DHT22;4597;48.730;9.114;2023-08-20T13:33:51;33.40;83.00
9125;DHT22;4597;48.730;9.114;2023-08-20T13:36:17;33.60;82.20
9125;DHT22;4597;48.730;9.114;2023-08-20T13:38:42;33.80;75.70
9125;DHT22;4597;48.730;9.114;2023-08-20T13:41:08;34.00;73.00
9125;DHT22;4597;48.730;9.114;2023-08-20T13:43:34;34.10;70.20
9125;DHT22;4597;48.730;9.114;2023-08-20T13:46:00;34.30;71.70
9125;DHT22;4597;48.730;9.114;2023-08-20T13:48:25;34.50;71.40
9125;DHT22;4597;48.730;9.114;2023-08-20T13:50:51;34.60;67.80
9125;DHT22;4597;48.730;9.114;2023-08-20T13:53:16;34.90;69.40
9125;DHT22;4597;48.730;9.114;2023-08-20T13:55:42;35.10;70.50
9125;DHT22;4597;48.730;9.114;2023-08-20T13:58:08;35.40;65.20
9125;DHT22;4597;48.730;9.114;2023-08-20T14:00:33;35.60;59.10
9125;DHT22;4597;48.730;9.114;2023-08-20T14:02:58;35.90;60.20
9125;DHT22;4597;48.730;9.114;2023-08-20T14:05:24;36.10;58.50
9125;DHT22;4597;48.730;9.114;2023-08-20T14:07:50;36.20;54.90
9125;DHT22;4597;48.730;9.114;2023-08-20T14:10:16;36.40;55.70
9125;DHT22;4597;48.730;9.114;2023-08-20T14:12:41;36.80;52.20
9125;DHT22;4597;48.730;9.114;2023-08-20T14:15:08;37.00;51.10
9125;DHT22;4597;48.730;9.114;2023-08-20T14:17:34;36.80;49.30
9125;DHT22;4597;48.730;9.114;2023-08-20T14:19:59;37.10;47.40
9125;DHT22;4597;48.730;9.114;2023-08-20T14:22:25;37.10;48.80
9125;DHT22;4597;48.730;9.114;2023-08-20T14:24:51;37.30;47.20
9125;DHT22;4597;48.730;9.114;2023-08-20T14:27:17;37.40;42.80
9125;DHT22;4597;48.730;9.114;2023-08-20T14:29:42;37.50;41.90
9125;DHT22;4597;48.730;9.114;2023-08-20T14:32:08;37.80;42.10
9125;DHT22;4597;48.730;9.114;2023-08-20T14:34:33;38.30;40.90
9125;DHT22;4597;48.730;9.114;2023-08-20T14:36:59;38.80;41.80
9125;DHT22;4597;48.730;9.114;2023-08-20T14:39:24;38.90;38.40
9125;DHT22;4597;48.730;9.114;2023-08-20T14:41:50;39.50;38.20
9125;DHT22;4597;48.730;9.114;2023-08-20T14:44:16;39.70;35.30
9125;DHT22;4597;48.730;9.114;2023-08-20T14:46:41;40.00;33.80
9125;DHT22;4597;48.730;9.114;2023-08-20T14:49:07;41.40;31.50
9125;DHT22;4597;48.730;9.114;2023-08-20T14:51:33;43.10;28.40
9125;DHT22;4597;48.730;9.114;2023-08-20T14:53:59;44.50;25.00
9125;DHT22;4597;48.730;9.114;2023-08-20T14:56:25;45.10;23.80
9125;DHT22;4597;48.730;9.114;2023-08-20T14:58:50;46.10;22.20
9125;DHT22;4597;48.730;9.114;2023-08-20T15:01:16;46.50;20.90
9125;DHT22;4597;48.730;9.114;2023-08-20T15:03:42;46.60;21.10
9125;DHT22;4597;48.730;9.114;2023-08-20T15:06:07;46.80;19.20
9125;DHT22;4597;48.730;9.114;2023-08-20T15:08:33;46.50;19.30
9125;DHT22;4597;48.730;9.114;2023-08-20T15:10:59;46.30;19.10
9125;DHT22;4597;48.730;9.114;2023-08-20T15:13:27;46.60;19.10
9125;DHT22;4597;48.730;9.114;2023-08-20T15:15:53;46.10;18.50
9125;DHT22;4597;48.730;9.114;2023-08-20T15:18:19;45.80;18.50
9125;DHT22;4597;48.730;9.114;2023-08-20T15:20:45;45.00;19.90
9125;DHT22;4597;48.730;9.114;2023-08-20T15:23:10;43.70;20.90
9125;DHT22;4597;48.730;9.114;2023-08-20T15:25:36;42.40;22.50
9125;DHT22;4597;48.730;9.114;2023-08-20T15:28:02;41.60;24.10
9125;DHT22;4597;48.730;9.114;2023-08-20T15:30:29;40.70;25.40
9125;DHT22;4597;48.730;9.114;2023-08-20T15:32:55;40.70;25.80
9125;DHT22;4597;48.730;9.114;2023-08-20T15:35:20;40.40;25.70
9125;DHT22;4597;48.730;9.114;2023-08-20T15:37:46;40.00;25.90
9125;DHT22;4597;48.730;9.114;2023-08-20T15:40:11;39.70;27.50
9125;DHT22;4597;48.730;9.114;2023-08-20T15:42:37;39.20;26.50
9125;DHT22;4597;48.730;9.114;2023-08-20T15:45:04;39.30;27.70
9125;DHT22;4597;48.730;9.114;2023-08-20T15:47:29;39.40;27.50
9125;DHT22;4597;48.730;9.114;2023-08-20T15:49:55;39.60;28.00
9125;DHT22;4597;48.730;9.114;2023-08-20T15:52:21;39.60;27.90
9125;DHT22;4597;48.730;9.114;2023-08-20T15:54:47;39.60;28.10
9125;DHT22;4597;48.730;9.114;2023-08-20T15:57:12;39.50;28.10
9125;DHT22;4597;48.730;9.114;2023-08-20T15:59:38;39.80;28.90
9125;DHT22;4597;48.730;9.114;2023-08-20T16:02:04;39.80;28.60
9125;DHT22;4597;48.730;9.114;2023-08-20T16:04:30;40.00;28.40
9125;DHT22;4597;48.730;9.114;2023-08-20T16:06:56;40.10;28.00